Time;durP1;ratioP1;P1;durP2;ratioP2;P2;SDS_P1;SDS_P2;PMS_P1;PMS_P2;Temp;Humidity;BMP_temperature;BMP_pressure;BME280_temperature;BME280_humidity;BME280_pressure;Samples;Min_cycle;Max_cycle;Signal;HPM_P1;HPM_P2
2022/01/27 00:01:28;;;;;;;;;;;4.00;99.90;;;;;;5131134;28;19932;-75
2022/01/27 00:04:03;;;;;;;;;;;4.00;99.90;;;;;;5119093;28;20030;-74
2022/01/27 00:06:31;;;;;;;;;;;4.00;99.90;;;;;;5127979;28;19929;-75
2022/01/27 00:09:07;;;;;;;;;;;4.00;99.90;;;;;;5123355;28;19984;-74
2022/01/27 00:11:34;;;;;;;;;;;4.00;99.90;;;;;;5126635;27;20346;-74
2022/01/27 00:14:03;;;;;;;;;;;4.00;99.90;;;;;;5119866;27;20325;-74
2022/01/27 00:16:34;;;;;;;;;;;4.00;99.90;;;;;;5123574;27;20018;-75
2022/01/27 00:19:00;;;;;;;;;;;4.00;99.90;;;;;;5128857;27;19976;-75
2022/01/27 00:21:28;;;;;;;;;;;4.00;99.90;;;;;;5123186;27;19931;-75
2022/01/27 00:23:55;;;;;;;;;;;4.00;99.90;;;;;;5116731;27;19978;-76
2022/01/27 00:26:24;;;;;;;;;;;4.00;99.90;;;;;;5117449;27;19923;-74
2022/01/27 00:28:53;;;;;;;;;;;4.00;99.90;;;;;;5120595;27;20014;-75
2022/01/27 00:31:22;;;;;;;;;;;4.00;99.90;;;;;;5124527;27;19984;-75
2022/01/27 00:33:49;;;;;;;;;;;4.10;99.90;;;;;;5124717;27;20220;-75
2022/01/27 00:36:16;;;;;;;;;;;4.10;99.90;;;;;;5132043;27;20266;-75
2022/01/27 00:38:43;;;;;;;;;;;4.10;99.90;;;;;;5129477;27;19931;-75
2022/01/27 00:41:10;;;;;;;;;;;4.10;99.90;;;;;;5125187;27;19923;-74
2022/01/27 00:43:37;;;;;;;;;;;4.10;99.90;;;;;;5128048;27;20297;-74
2022/01/27 00:46:09;;;;;;;;;;;4.10;99.90;;;;;;5133181;27;20022;-74
2022/01/27 00:48:37;;;;;;;;;;;4.10;99.90;;;;;;5124113;27;19932;-74
2022/01/27 00:51:07;;;;;;;;;;;4.10;99.90;;;;;;5116950;27;20387;-74
2022/01/27 00:53:42;;;;;;;;;;;4.20;99.90;;;;;;5115049;27;19924;-75
2022/01/27 00:56:18;;;;;;;;;;;4.10;99.90;;;;;;5125169;27;19923;-74
2022/01/27 00:58:53;;;;;;;;;;;4.10;99.90;;;;;;5134343;27;19924;-74
2022/01/27 01:01:24;;;;;;;;;;;4.10;99.90;;;;;;5124393;27;19923;-75
2022/01/27 01:03:56;;;;;;;;;;;4.10;99.90;;;;;;5116983;27;19931;-74
2022/01/27 01:06:33;;;;;;;;;;;4.00;99.90;;;;;;5125408;27;19931;-75
2022/01/27 01:14:36;;;;;;;;;;;4.10;99.90;;;;;;5103557;27;19931;-74
2022/01/27 01:17:09;;;;;;;;;;;4.10;99.90;;;;;;5128056;27;19923;-75
2022/01/27 01:19:51;;;;;;;;;;;4.10;99.90;;;;;;5126582;27;19924;-75
2022/01/27 01:30:48;;;;;;;;;;;4.10;99.90;;;;;;5122736;27;19931;-75
2022/01/27 01:33:21;;;;;;;;;;;4.00;99.90;;;;;;5120352;27;20277;-75
2022/01/27 01:35:50;;;;;;;;;;;4.00;99.90;;;;;;5115119;27;19946;-75
2022/01/27 01:38:18;;;;;;;;;;;4.00;99.90;;;;;;5119119;27;19927;-76
2022/01/27 01:40:46;;;;;;;;;;;4.00;99.90;;;;;;5122260;27;20346;-75
2022/01/27 01:43:13;;;;;;;;;;;4.00;99.90;;;;;;5119332;27;19924;-75
2022/01/27 01:45:40;;;;;;;;;;;4.00;99.90;;;;;;5130505;27;19923;-75
2022/01/27 01:48:07;;;;;;;;;;;4.00;99.90;;;;;;5120812;27;19934;-75
2022/01/27 01:50:34;;;;;;;;;;;4.00;99.90;;;;;;5114996;27;19930;-75
2022/01/27 01:53:02;;;;;;;;;;;4.00;99.90;;;;;;5118079;27;20626;-75
2022/01/27 01:55:30;;;;;;;;;;;4.00;99.90;;;;;;5115912;27;19942;-75
2022/01/27 01:57:57;;;;;;;;;;;4.00;99.90;;;;;;5124062;27;19924;-74
2022/01/27 02:00:24;;;;;;;;;;;4.00;99.90;;;;;;5115942;27;20389;-75
2022/01/27 02:02:50;;;;;;;;;;;4.00;99.90;;;;;;5125178;27;19923;-74
2022/01/27 02:05:17;;;;;;;;;;;4.00;99.90;;;;;;5118102;27;20054;-76
2022/01/27 02:07:54;;;;;;;;;;;4.10;99.90;;;;;;5129132;27;19930;-75
2022/01/27 02:10:35;;;;;;;;;;;4.10;99.90;;;;;;5118714;27;20432;-74
2022/01/27 02:18:31;;;;;;;;;;;4.10;99.90;;;;;;5115660;27;20398;-75
2022/01/27 02:20:59;;;;;;;;;;;4.20;99.90;;;;;;5119969;27;19924;-75
2022/01/27 02:23:25;;;;;;;;;;;4.20;99.90;;;;;;5134726;27;19923;-74
2022/01/27 02:25:52;;;;;;;;;;;4.20;99.90;;;;;;5115574;27;19930;-74
2022/01/27 02:28:20;;;;;;;;;;;4.20;99.90;;;;;;5129220;27;19924;-74
2022/01/27 02:30:46;;;;;;;;;;;4.30;99.90;;;;;;5118318;27;19930;-74
2022/01/27 02:33:13;;;;;;;;;;;4.30;99.90;;;;;;5119734;27;19924;-75
2022/01/27 02:35:40;;;;;;;;;;;4.30;99.90;;;;;;5126018;27;19924;-75
2022/01/27 02:38:08;;;;;;;;;;;4.40;99.90;;;;;;5126184;27;19924;-75
2022/01/27 02:40:38;;;;;;;;;;;4.40;99.90;;;;;;5120537;27;19923;-76
2022/01/27 02:43:05;;;;;;;;;;;4.40;99.90;;;;;;5128588;27;19924;-74
2022/01/27 02:45:36;;;;;;;;;;;4.40;99.90;;;;;;5132037;27;19927;-74
2022/01/27 02:48:02;;;;;;;;;;;4.40;99.90;;;;;;5123933;27;19950;-75
2022/01/27 02:50:29;;;;;;;;;;;4.40;99.90;;;;;;5124631;27;20007;-76
2022/01/27 02:52:56;;;;;;;;;;;4.40;99.90;;;;;;5125424;27;19937;-75
2022/01/27 02:55:24;;;;;;;;;;;4.40;99.90;;;;;;5118313;27;19930;-75
2022/01/27 02:57:50;;;;;;;;;;;4.40;99.90;;;;;;5115875;27;19923;-75
2022/01/27 03:00:18;;;;;;;;;;;4.40;99.90;;;;;;5127396;27;20030;-75
2022/01/27 03:02:44;;;;;;;;;;;4.30;99.90;;;;;;5121345;27;19946;-75
2022/01/27 03:05:11;;;;;;;;;;;4.30;99.90;;;;;;5116142;27;20505;-75
2022/01/27 03:07:37;;;;;;;;;;;4.30;99.90;;;;;;5129112;27;19925;-74
2022/01/27 03:10:05;;;;;;;;;;;4.20;99.90;;;;;;5113275;27;20388;-74
2022/01/27 03:12:37;;;;;;;;;;;4.20;99.90;;;;;;5125256;27;20298;-75
2022/01/27 03:15:04;;;;;;;;;;;4.20;99.90;;;;;;5127908;27;20018;-73
2022/01/27 03:17:30;;;;;;;;;;;4.20;99.90;;;;;;5114315;27;19930;-74
2022/01/27 03:19:57;;;;;;;;;;;4.20;99.90;;;;;;5123344;27;19934;-74
2022/01/27 03:22:24;;;;;;;;;;;4.20;99.90;;;;;;5125308;27;19930;-73
2022/01/27 03:24:50;;;;;;;;;;;4.20;99.90;;;;;;5123142;27;19930;-74
2022/01/27 03:27:20;;;;;;;;;;;4.20;99.90;;;;;;5123263;27;20007;-72
2022/01/27 03:29:48;;;;;;;;;;;4.20;99.90;;;;;;5117062;27;19966;-73
2022/01/27 03:32:15;;;;;;;;;;;4.20;99.90;;;;;;5124775;27;19924;-73
2022/01/27 03:34:42;;;;;;;;;;;4.20;99.90;;;;;;5114745;27;20396;-74
2022/01/27 03:37:08;;;;;;;;;;;4.20;99.90;;;;;;5114457;27;19932;-74
2022/01/27 03:39:38;;;;;;;;;;;4.20;99.90;;;;;;5130644;27;19932;-74
2022/01/27 03:42:04;;;;;;;;;;;4.20;99.90;;;;;;5122821;27;19923;-75
2022/01/27 03:44:31;;;;;;;;;;;4.20;99.90;;;;;;5121267;27;19930;-73
2022/01/27 03:46:59;;;;;;;;;;;4.20;99.90;;;;;;5120380;27;20406;-74
2022/01/27 03:49:26;;;;;;;;;;;4.10;99.90;;;;;;5127655;27;20377;-74
2022/01/27 03:51:58;;;;;;;;;;;4.00;99.90;;;;;;5120832;28;19946;-74
2022/01/27 03:54:25;;;;;;;;;;;4.00;99.90;;;;;;5126606;28;20379;-73
2022/01/27 03:56:51;;;;;;;;;;;3.90;99.90;;;;;;5128502;28;19923;-74
2022/01/27 03:59:18;;;;;;;;;;;4.00;99.90;;;;;;5119776;28;19930;-75
2022/01/27 04:01:45;;;;;;;;;;;4.00;99.90;;;;;;5125487;28;19956;-73
2022/01/27 04:04:14;;;;;;;;;;;4.00;99.90;;;;;;5120278;28;20026;-74
2022/01/27 04:06:41;;;;;;;;;;;4.10;99.90;;;;;;5124481;28;19988;-74
2022/01/27 04:09:08;;;;;;;;;;;4.00;99.90;;;;;;5129476;28;19932;-75
2022/01/27 04:11:36;;;;;;;;;;;4.00;99.90;;;;;;5121176;28;22439;-74
2022/01/27 04:14:02;;;;;;;;;;;4.00;99.90;;;;;;5115206;28;20348;-74
2022/01/27 04:16:29;;;;;;;;;;;4.00;99.90;;;;;;5118487;28;19932;-74
2022/01/27 04:18:56;;;;;;;;;;;4.00;99.90;;;;;;5123168;28;19924;-75
2022/01/27 04:21:24;;;;;;;;;;;4.00;99.90;;;;;;5126779;28;19966;-74
2022/01/27 04:23:51;;;;;;;;;;;4.00;99.90;;;;;;5128077;28;19924;-74
2022/01/27 04:26:22;;;;;;;;;;;4.00;99.90;;;;;;5119578;28;20692;-74
2022/01/27 04:28:50;;;;;;;;;;;4.00;99.90;;;;;;5122075;28;19924;-74
2022/01/27 04:31:17;;;;;;;;;;;4.00;99.90;;;;;;5123029;28;20458;-75
2022/01/27 04:33:44;;;;;;;;;;;4.10;99.90;;;;;;5117525;28;20412;-75
2022/01/27 04:36:17;;;;;;;;;;;4.10;99.90;;;;;;5123279;28;20385;-75
2022/01/27 04:38:50;;;;;;;;;;;4.00;99.90;;;;;;5125357;28;19929;-75
2022/01/27 04:41:22;;;;;;;;;;;3.90;99.90;;;;;;5114746;28;20303;-75
2022/01/27 04:43:55;;;;;;;;;;;3.90;99.90;;;;;;5130400;28;19927;-75
2022/01/27 04:46:30;;;;;;;;;;;3.80;99.90;;;;;;5129466;28;20335;-75
2022/01/27 04:49:01;;;;;;;;;;;3.90;99.90;;;;;;5128061;28;19992;-74
2022/01/27 04:51:28;;;;;;;;;;;3.80;99.90;;;;;;5121774;28;20382;-75
2022/01/27 04:54:02;;;;;;;;;;;3.80;99.90;;;;;;5112803;28;19924;-75
2022/01/27 04:56:30;;;;;;;;;;;3.80;99.90;;;;;;5123967;28;19923;-74
2022/01/27 04:59:01;;;;;;;;;;;3.80;99.90;;;;;;5123014;27;19969;-74
2022/01/27 05:01:32;;;;;;;;;;;3.80;99.90;;;;;;5122741;27;20007;-74
2022/01/27 05:04:03;;;;;;;;;;;3.80;99.90;;;;;;5122808;27;20304;-76
2022/01/27 05:06:29;;;;;;;;;;;3.80;99.90;;;;;;5124688;27;20428;-76
2022/01/27 05:08:57;;;;;;;;;;;3.70;99.90;;;;;;5124294;27;19928;-75
2022/01/27 05:11:28;;;;;;;;;;;3.70;99.90;;;;;;5116803;27;19930;-74
2022/01/27 05:13:58;;;;;;;;;;;3.70;99.90;;;;;;5127477;27;19966;-75
2022/01/27 05:16:27;;;;;;;;;;;3.70;99.90;;;;;;5133254;27;19955;-75
2022/01/27 05:18:53;;;;;;;;;;;3.70;99.90;;;;;;5135200;27;19976;-75
2022/01/27 05:21:20;;;;;;;;;;;3.60;99.90;;;;;;5120974;27;20393;-75
2022/01/27 05:23:47;;;;;;;;;;;3.60;99.90;;;;;;5123866;27;19923;-74
2022/01/27 05:26:15;;;;;;;;;;;3.60;99.90;;;;;;5135179;27;19924;-75
2022/01/27 05:28:42;;;;;;;;;;;3.50;99.90;;;;;;5118822;27;19923;-75
2022/01/27 05:31:08;;;;;;;;;;;3.60;99.90;;;;;;5117558;27;19923;-74
2022/01/27 05:33:35;;;;;;;;;;;3.60;99.90;;;;;;5125208;27;19938;-74
2022/01/27 05:36:02;;;;;;;;;;;3.60;99.90;;;;;;5122881;27;19943;-75
2022/01/27 05:38:29;;;;;;;;;;;3.60;99.90;;;;;;5125739;27;19930;-75
2022/01/27 05:40:55;;;;;;;;;;;3.60;99.90;;;;;;5125868;27;19931;-75
2022/01/27 05:43:23;;;;;;;;;;;3.60;99.90;;;;;;5118182;27;19934;-75
2022/01/27 05:45:50;;;;;;;;;;;3.60;99.90;;;;;;5121498;27;19927;-76
2022/01/27 05:48:17;;;;;;;;;;;3.60;99.90;;;;;;5133051;27;19963;-75
2022/01/27 05:50:43;;;;;;;;;;;3.60;99.90;;;;;;5128941;27;19924;-76
2022/01/27 05:53:10;;;;;;;;;;;3.70;99.90;;;;;;5132000;27;20607;-76
2022/01/27 05:55:37;;;;;;;;;;;3.70;99.90;;;;;;5120182;27;19924;-77
2022/01/27 05:58:03;;;;;;;;;;;3.70;99.90;;;;;;5132333;27;19924;-76
2022/01/27 06:00:31;;;;;;;;;;;3.70;99.90;;;;;;5129592;27;19932;-78
2022/01/27 06:02:58;;;;;;;;;;;3.70;99.90;;;;;;5124910;27;19924;-75
2022/01/27 06:05:26;;;;;;;;;;;3.80;99.90;;;;;;5122835;27;19924;-77
2022/01/27 06:07:52;;;;;;;;;;;3.90;99.90;;;;;;5122404;27;19981;-76
2022/01/27 06:10:19;;;;;;;;;;;4.00;99.90;;;;;;5124026;27;19923;-76
2022/01/27 06:12:47;;;;;;;;;;;4.00;99.90;;;;;;5125795;27;19924;-77
2022/01/27 06:15:13;;;;;;;;;;;4.10;99.90;;;;;;5125270;27;19930;-77
2022/01/27 06:17:42;;;;;;;;;;;4.10;99.90;;;;;;5109920;27;19928;-77
2022/01/27 06:20:09;;;;;;;;;;;4.10;99.90;;;;;;5128030;27;19945;-77
2022/01/27 06:22:35;;;;;;;;;;;4.10;99.90;;;;;;5120446;27;19931;-77
2022/01/27 06:25:02;;;;;;;;;;;4.10;99.90;;;;;;5116782;27;19979;-76
2022/01/27 06:27:29;;;;;;;;;;;4.20;99.90;;;;;;5131296;27;20026;-76
2022/01/27 06:29:58;;;;;;;;;;;4.20;99.90;;;;;;5121197;27;19924;-79
2022/01/27 06:32:25;;;;;;;;;;;4.20;99.90;;;;;;5131013;27;19930;-77
2022/01/27 06:34:53;;;;;;;;;;;4.30;99.90;;;;;;5121170;27;20014;-78
2022/01/27 06:37:19;;;;;;;;;;;4.30;99.90;;;;;;5132965;27;19927;-76
2022/01/27 06:39:46;;;;;;;;;;;4.30;99.90;;;;;;5120749;27;19923;-77
2022/01/27 06:42:13;;;;;;;;;;;4.30;99.90;;;;;;5122739;27;19951;-76
2022/01/27 06:44:42;;;;;;;;;;;4.40;99.90;;;;;;5118657;27;20394;-77
2022/01/27 06:47:09;;;;;;;;;;;4.40;99.90;;;;;;5114345;27;19923;-77
2022/01/27 06:49:35;;;;;;;;;;;4.40;99.90;;;;;;5130268;27;19942;-77
2022/01/27 06:52:04;;;;;;;;;;;4.50;99.90;;;;;;5118145;27;19930;-77
2022/01/27 06:54:32;;;;;;;;;;;4.50;99.90;;;;;;5131086;27;19983;-77
2022/01/27 06:56:59;;;;;;;;;;;4.50;99.90;;;;;;5128373;27;19924;-78
2022/01/27 06:59:25;;;;;;;;;;;4.60;99.90;;;;;;5135122;27;19978;-78
2022/01/27 07:01:52;;;;;;;;;;;4.60;99.90;;;;;;5131226;27;19923;-78
2022/01/27 07:04:19;;;;;;;;;;;4.60;99.90;;;;;;5115851;27;19927;-76
2022/01/27 07:06:47;;;;;;;;;;;4.70;99.90;;;;;;5120181;27;20671;-77
2022/01/27 07:09:15;;;;;;;;;;;4.70;99.90;;;;;;5118763;27;19927;-79
2022/01/27 07:11:42;;;;;;;;;;;4.70;99.90;;;;;;5123115;27;19924;-79
2022/01/27 07:14:11;;;;;;;;;;;4.70;99.90;;;;;;5126603;27;19931;-79
2022/01/27 07:16:38;;;;;;;;;;;4.80;99.90;;;;;;5119918;27;20436;-78
2022/01/27 07:19:05;;;;;;;;;;;4.80;99.90;;;;;;5115865;27;19949;-78
2022/01/27 07:21:31;;;;;;;;;;;4.80;99.90;;;;;;5123123;27;19931;-79
2022/01/27 07:23:58;;;;;;;;;;;4.90;99.90;;;;;;5118062;27;19927;-78
2022/01/27 07:26:26;;;;;;;;;;;4.90;99.90;;;;;;5134311;27;20017;-77
2022/01/27 07:28:53;;;;;;;;;;;4.90;99.90;;;;;;5132424;27;19988;-79
2022/01/27 07:31:19;;;;;;;;;;;4.90;99.90;;;;;;5127765;27;20445;-77
2022/01/27 07:33:47;;;;;;;;;;;4.90;99.90;;;;;;5119070;27;19924;-77
2022/01/27 07:36:14;;;;;;;;;;;4.90;99.90;;;;;;5128877;27;20306;-77
2022/01/27 07:38:40;;;;;;;;;;;4.90;99.90;;;;;;5124404;27;19927;-75
2022/01/27 07:41:07;;;;;;;;;;;4.90;99.90;;;;;;5124127;27;19923;-77
2022/01/27 07:43:35;;;;;;;;;;;5.00;99.90;;;;;;5119367;27;19923;-77
2022/01/27 07:46:03;;;;;;;;;;;5.00;99.90;;;;;;5123540;27;19930;-77
2022/01/27 07:48:30;;;;;;;;;;;5.50;99.90;;;;;;5123658;27;19927;-77
2022/01/27 07:50:56;;;;;;;;;;;5.00;99.90;;;;;;5120599;27;19923;-77
2022/01/27 07:53:23;;;;;;;;;;;5.10;99.90;;;;;;5138359;27;19935;-75
2022/01/27 08:01:00;;;;;;;;;;;5.10;99.90;;;;;;5056970;28;19913;-79
2022/01/27 08:03:27;;;;;;;;;;;5.20;99.90;;;;;;5052985;28;19968;-79
2022/01/27 08:05:53;;;;;;;;;;;5.20;99.90;;;;;;5019484;28;20032;-76
2022/01/27 08:08:20;;;;;;;;;;;5.70;99.90;;;;;;5021921;28;20033;-77
2022/01/27 08:10:48;;;;;;;;;;;5.30;99.90;;;;;;5020659;28;19929;-77
2022/01/27 08:13:14;;;;;;;;;;;5.30;99.90;;;;;;5021704;28;19957;-77
2022/01/27 08:15:41;;;;;;;;;;;5.30;99.90;;;;;;5024452;28;19973;-77
2022/01/27 08:18:09;;;;;;;;;;;5.30;99.90;;;;;;5023830;28;20287;-78
2022/01/27 08:20:37;;;;;;;;;;;5.40;99.90;;;;;;5021472;28;19973;-78
2022/01/27 08:23:05;;;;;;;;;;;5.40;99.90;;;;;;5023640;28;19933;-76
2022/01/27 08:25:32;;;;;;;;;;;5.40;99.90;;;;;;5029524;28;19929;-76
2022/01/27 08:28:02;;;;;;;;;;;5.40;99.90;;;;;;5014636;28;20032;-76
2022/01/27 08:30:35;;;;;;;;;;;5.40;99.90;;;;;;5010780;28;19944;-75
2022/01/27 08:33:08;;;;;;;;;;;5.50;99.90;;;;;;5024114;28;20085;-75
2022/01/27 08:35:36;;;;;;;;;;;5.50;99.90;;;;;;5022756;28;19932;-75
2022/01/27 08:38:03;;;;;;;;;;;5.50;99.90;;;;;;5025802;28;19925;-75
2022/01/27 08:40:29;;;;;;;;;;;5.50;99.90;;;;;;5026822;28;20002;-77
2022/01/27 08:42:57;;;;;;;;;;;5.50;99.90;;;;;;5020671;28;20024;-77
2022/01/27 08:45:24;;;;;;;;;;;5.50;99.90;;;;;;5059675;22;19941;-76
2022/01/27 08:47:52;;;;;;;;;;;5.60;99.90;;;;;;5016300;28;19932;-78
2022/01/27 08:50:20;;;;;;;;;;;5.60;99.90;;;;;;4997688;28;20462;-77
2022/01/27 08:52:48;;;;;;;;;;;5.60;99.90;;;;;;5013704;28;19930;-76
2022/01/27 08:55:16;;;;;;;;;;;5.60;99.90;;;;;;5003928;28;20764;-78
2022/01/27 08:57:42;;;;;;;;;;;5.60;99.90;;;;;;5008006;28;19979;-77
2022/01/27 09:00:10;;;;;;;;;;;5.60;99.90;;;;;;5007187;28;19926;-77
2022/01/27 09:02:37;;;;;;;;;;;5.70;99.90;;;;;;5014887;28;19932;-76
2022/01/27 09:05:04;;;;;;;;;;;5.70;99.90;;;;;;5015273;28;19929;-77
2022/01/27 09:07:31;;;;;;;;;;;5.70;99.90;;;;;;5012590;28;19939;-77
2022/01/27 09:09:59;;;;;;;;;;;5.80;99.90;;;;;;5009724;28;19936;-77
2022/01/27 09:12:25;;;;;;;;;;;5.90;99.90;;;;;;5005085;28;19980;-76
2022/01/27 09:14:52;;;;;;;;;;;5.90;99.90;;;;;;5010641;28;19926;-77
2022/01/27 09:17:19;;;;;;;;;;;6.00;99.90;;;;;;5006400;28;19934;-78
2022/01/27 09:19:46;;;;;;;;;;;5.90;99.90;;;;;;5003577;28;19930;-78
2022/01/27 09:22:16;;;;;;;;;;;6.00;99.90;;;;;;5008430;28;19926;-77
2022/01/27 09:24:51;;;;;;;;;;;5.90;99.90;;;;;;5001988;28;19934;-78
2022/01/27 09:27:20;;;;;;;;;;;5.90;99.90;;;;;;5007018;28;20297;-78
2022/01/27 09:29:47;;;;;;;;;;;5.90;99.90;;;;;;5009265;28;20016;-77
2022/01/27 09:32:14;;;;;;;;;;;5.90;99.90;;;;;;5009587;28;20033;-77
2022/01/27 09:34:41;;;;;;;;;;;5.90;99.90;;;;;;5005094;28;19933;-77
2022/01/27 09:37:08;;;;;;;;;;;5.90;99.90;;;;;;5001269;28;20426;-76
2022/01/27 09:39:35;;;;;;;;;;;6.00;99.90;;;;;;5006403;28;19932;-76
2022/01/27 09:42:02;;;;;;;;;;;6.00;99.90;;;;;;5002322;28;19936;-75
2022/01/27 09:44:32;;;;;;;;;;;5.90;99.90;;;;;;4997315;28;19925;-71
2022/01/27 09:47:01;;;;;;;;;;;6.00;99.90;;;;;;4999028;28;20008;-71
2022/01/27 09:49:35;;;;;;;;;;;6.00;99.90;;;;;;5003145;28;20364;-73
2022/01/27 09:52:02;;;;;;;;;;;6.00;99.90;;;;;;5008440;28;19925;-73
2022/01/27 09:54:29;;;;;;;;;;;6.10;99.90;;;;;;5000460;28;19933;-72
2022/01/27 09:56:56;;;;;;;;;;;6.10;99.90;;;;;;5002457;28;20321;-71
2022/01/27 09:59:23;;;;;;;;;;;6.10;99.90;;;;;;4997422;28;19933;-71
2022/01/27 10:01:55;;;;;;;;;;;6.10;99.90;;;;;;5004321;28;19926;-72
2022/01/27 10:04:23;;;;;;;;;;;6.10;99.90;;;;;;5001703;28;19983;-72
2022/01/27 10:06:56;;;;;;;;;;;6.10;99.90;;;;;;5036533;22;20019;-72
2022/01/27 10:09:26;;;;;;;;;;;6.10;99.90;;;;;;5036031;28;20448;-72
2022/01/27 10:11:53;;;;;;;;;;;6.10;99.90;;;;;;5036133;28;20482;-71
2022/01/27 10:14:22;;;;;;;;;;;6.20;99.90;;;;;;5038953;28;19932;-71
2022/01/27 10:16:50;;;;;;;;;;;6.30;99.90;;;;;;5036874;28;19979;-73
2022/01/27 10:19:19;;;;;;;;;;;6.20;99.90;;;;;;5042674;28;19931;-73
2022/01/27 10:21:46;;;;;;;;;;;6.30;99.90;;;;;;5035953;28;19925;-75
2022/01/27 10:24:21;;;;;;;;;;;6.30;99.90;;;;;;5040514;28;19959;-74
2022/01/27 10:26:53;;;;;;;;;;;6.40;99.90;;;;;;5039898;28;19931;-74
2022/01/27 10:29:34;;;;;;;;;;;6.50;99.90;;;;;;5038508;28;19925;-74
2022/01/27 10:32:05;;;;;;;;;;;6.50;99.90;;;;;;5037551;28;20358;-74
2022/01/27 10:34:53;;;;;;;;;;;6.50;99.90;;;;;;5037023;28;19933;-74
2022/01/27 10:37:19;;;;;;;;;;;6.50;99.90;;;;;;5032981;28;20678;-74
2022/01/27 10:39:47;;;;;;;;;;;6.60;99.90;;;;;;5039855;28;19925;-74
2022/01/27 10:42:13;;;;;;;;;;;6.60;99.90;;;;;;5039888;28;19925;-74
2022/01/27 10:44:44;;;;;;;;;;;6.70;99.90;;;;;;5044108;28;19931;-74
2022/01/27 10:47:15;;;;;;;;;;;6.70;99.90;;;;;;5031541;28;19929;-74
2022/01/27 10:49:47;;;;;;;;;;;6.70;99.90;;;;;;5038047;28;19925;-74
2022/01/27 10:52:17;;;;;;;;;;;6.70;99.90;;;;;;5046254;28;19932;-74
2022/01/27 10:54:49;;;;;;;;;;;6.70;99.90;;;;;;5040193;28;19928;-74
2022/01/27 10:57:16;;;;;;;;;;;6.70;99.90;;;;;;5044956;28;19940;-73
2022/01/27 10:59:44;;;;;;;;;;;6.70;99.90;;;;;;5046880;28;20012;-73
2022/01/27 11:02:11;;;;;;;;;;;6.80;99.90;;;;;;5043412;28;19925;-74
2022/01/27 11:04:38;;;;;;;;;;;6.80;99.90;;;;;;5042541;28;19929;-72
2022/01/27 11:07:08;;;;;;;;;;;6.80;99.90;;;;;;5034136;28;19932;-73
2022/01/27 11:09:38;;;;;;;;;;;6.90;99.90;;;;;;5034391;28;19924;-74
2022/01/27 11:12:10;;;;;;;;;;;6.90;99.90;;;;;;5039715;28;20019;-73
2022/01/27 11:14:37;;;;;;;;;;;6.90;99.90;;;;;;5038542;28;20121;-73
2022/01/27 11:17:05;;;;;;;;;;;6.90;99.90;;;;;;5031262;28;19929;-73
2022/01/27 11:19:55;;;;;;;;;;;6.90;99.90;;;;;;5041559;28;19933;-73
2022/01/27 11:25:49;;;;;;;;;;;6.90;99.90;;;;;;5018418;28;19979;-73
2022/01/27 11:28:07;;;;;;;;;;;7.00;99.90;;;;;;5035521;28;19952;-73
2022/01/27 11:30:36;;;;;;;;;;;7.00;99.90;;;;;;5039120;28;20012;-73
2022/01/27 11:33:04;;;;;;;;;;;7.00;99.90;;;;;;5039657;28;19925;-72
2022/01/27 11:35:31;;;;;;;;;;;7.10;99.90;;;;;;5036985;28;19925;-74
2022/01/27 11:38:01;;;;;;;;;;;7.10;99.90;;;;;;5042682;28;20398;-73
2022/01/27 11:40:35;;;;;;;;;;;7.20;99.90;;;;;;5035824;28;19948;-73
2022/01/27 11:43:03;;;;;;;;;;;7.20;99.90;;;;;;5034299;28;19965;-73
2022/01/27 11:45:31;;;;;;;;;;;7.20;99.90;;;;;;5036411;28;19933;-73
2022/01/27 11:47:59;;;;;;;;;;;7.20;99.90;;;;;;5035741;28;20514;-73
2022/01/27 11:50:34;;;;;;;;;;;7.30;99.90;;;;;;5033147;28;20328;-72
2022/01/27 11:53:03;;;;;;;;;;;7.30;99.90;;;;;;5036624;28;19975;-74
2022/01/27 11:55:43;;;;;;;;;;;7.30;99.90;;;;;;5047171;28;19924;-74
2022/01/27 11:58:17;;;;;;;;;;;7.40;99.90;;;;;;5039944;28;20407;-73
2022/01/27 12:01:02;;;;;;;;;;;7.50;99.90;;;;;;5033257;28;20015;-73
2022/01/27 12:03:29;;;;;;;;;;;7.60;99.90;;;;;;5046695;28;20015;-73
2022/01/27 12:06:12;;;;;;;;;;;7.60;99.90;;;;;;5037803;28;20019;-73
2022/01/27 12:08:40;;;;;;;;;;;7.60;99.90;;;;;;5046318;28;19929;-74
2022/01/27 12:11:08;;;;;;;;;;;7.70;99.90;;;;;;5038782;28;19936;-75
2022/01/27 12:14:01;;;;;;;;;;;7.70;99.90;;;;;;5036938;28;19928;-74
2022/01/27 12:16:51;;;;;;;;;;;7.70;99.90;;;;;;5033573;28;19947;-73
2022/01/27 12:19:18;;;;;;;;;;;7.70;99.90;;;;;;5041313;28;19987;-73
2022/01/27 12:21:46;;;;;;;;;;;7.70;99.90;;;;;;5032727;28;19925;-74
2022/01/27 12:24:23;;;;;;;;;;;7.80;99.90;;;;;;5042388;28;19929;-73
2022/01/27 12:26:51;;;;;;;;;;;7.80;99.90;;;;;;5042680;28;20006;-73
2022/01/27 12:29:22;;;;;;;;;;;7.80;99.90;;;;;;5042565;28;20514;-73
2022/01/27 12:31:49;;;;;;;;;;;7.80;99.90;;;;;;5041249;28;20002;-73
2022/01/27 12:34:15;;;;;;;;;;;7.90;99.90;;;;;;5038086;28;20020;-72
2022/01/27 12:36:52;;;;;;;;;;;7.90;99.90;;;;;;5043233;28;19928;-73
2022/01/27 12:39:21;;;;;;;;;;;7.90;99.90;;;;;;5043448;28;20494;-73
2022/01/27 12:41:48;;;;;;;;;;;7.90;99.90;;;;;;5038800;28;19925;-74
2022/01/27 12:44:15;;;;;;;;;;;7.90;99.90;;;;;;5036193;28;19960;-73
2022/01/27 12:46:57;;;;;;;;;;;7.90;99.90;;;;;;5040161;28;19940;-72
2022/01/27 12:49:35;;;;;;;;;;;7.90;99.90;;;;;;5035053;28;19939;-72
2022/01/27 12:52:05;;;;;;;;;;;7.90;99.90;;;;;;5045501;28;19943;-72
2022/01/27 12:54:33;;;;;;;;;;;7.90;99.90;;;;;;5038660;28;19936;-73
2022/01/27 12:57:00;;;;;;;;;;;8.00;99.90;;;;;;5039244;28;19925;-72
2022/01/27 12:59:30;;;;;;;;;;;8.00;99.90;;;;;;5041900;28;19931;-71
2022/01/27 13:01:57;;;;;;;;;;;8.00;99.90;;;;;;5034967;28;19961;-75
2022/01/27 13:04:24;;;;;;;;;;;8.00;99.90;;;;;;5034758;28;19929;-72
2022/01/27 13:06:54;;;;;;;;;;;8.00;99.90;;;;;;5041377;28;19926;-70
2022/01/27 13:09:21;;;;;;;;;;;8.00;99.90;;;;;;5034852;28;20391;-71
2022/01/27 13:11:52;;;;;;;;;;;8.00;99.90;;;;;;5039486;28;20339;-71
2022/01/27 13:14:18;;;;;;;;;;;8.00;99.90;;;;;;5038764;28;19971;-75
2022/01/27 13:16:49;;;;;;;;;;;8.00;99.90;;;;;;5040854;28;19925;-71
2022/01/27 13:19:23;;;;;;;;;;;8.10;99.90;;;;;;5041572;28;19939;-71
2022/01/27 13:21:59;;;;;;;;;;;8.00;99.90;;;;;;5038063;28;20012;-71
2022/01/27 13:24:27;;;;;;;;;;;8.10;99.90;;;;;;5037172;28;19940;-72
2022/01/27 13:27:04;;;;;;;;;;;8.10;99.90;;;;;;5037549;28;19986;-71
2022/01/27 13:29:38;;;;;;;;;;;8.10;99.90;;;;;;5035039;28;19929;-73
2022/01/27 13:32:05;;;;;;;;;;;8.10;99.90;;;;;;5040880;28;20290;-72
2022/01/27 13:34:32;;;;;;;;;;;8.10;99.90;;;;;;5040409;28;20548;-72
2022/01/27 13:37:00;;;;;;;;;;;8.10;99.90;;;;;;5042753;28;19924;-72
2022/01/27 13:39:46;;;;;;;;;;;8.10;99.90;;;;;;5042324;28;19925;-72
2022/01/27 13:42:16;;;;;;;;;;;8.20;99.90;;;;;;5045357;28;20020;-71
2022/01/27 13:44:53;;;;;;;;;;;8.30;99.90;;;;;;5037181;28;20335;-71
2022/01/27 13:47:24;;;;;;;;;;;8.30;99.90;;;;;;5042113;28;19924;-71
2022/01/27 13:49:51;;;;;;;;;;;8.30;99.90;;;;;;5039589;28;19932;-72
2022/01/27 13:52:18;;;;;;;;;;;8.40;99.90;;;;;;5037065;28;20579;-72
2022/01/27 13:54:46;;;;;;;;;;;8.40;99.90;;;;;;5038574;28;20384;-72
2022/01/27 13:57:14;;;;;;;;;;;8.40;99.90;;;;;;5040344;28;20429;-71
2022/01/27 13:59:48;;;;;;;;;;;8.50;99.90;;;;;;5045483;28;20334;-71
2022/01/27 14:02:16;;;;;;;;;;;8.50;99.90;;;;;;5038012;28;20038;-71
2022/01/27 14:04:43;;;;;;;;;;;8.50;99.90;;;;;;5040869;28;19931;-70
2022/01/27 14:07:10;;;;;;;;;;;8.60;99.90;;;;;;5035739;28;19932;-69
2022/01/27 14:09:41;;;;;;;;;;;8.60;99.90;;;;;;5035114;28;20443;-71
2022/01/27 14:12:08;;;;;;;;;;;8.70;99.90;;;;;;5037274;28;19925;-67
2022/01/27 14:14:49;;;;;;;;;;;8.70;99.90;;;;;;5032688;28;19925;-69
2022/01/27 14:17:20;;;;;;;;;;;8.70;99.90;;;;;;5039669;28;19925;-68
2022/01/27 14:19:47;;;;;;;;;;;8.70;99.90;;;;;;5046628;28;20015;-69
2022/01/27 14:22:15;;;;;;;;;;;8.70;99.90;;;;;;5035428;28;19932;-68
2022/01/27 14:24:57;;;;;;;;;;;8.70;99.90;;;;;;5035839;28;19925;-69
2022/01/27 14:27:31;;;;;;;;;;;8.70;99.90;;;;;;5035414;28;20347;-71
2022/01/27 14:29:58;;;;;;;;;;;8.70;99.90;;;;;;5032754;28;19932;-71
2022/01/27 14:32:25;;;;;;;;;;;8.80;99.90;;;;;;5036132;28;20366;-73
2022/01/27 14:34:52;;;;;;;;;;;8.80;99.90;;;;;;5041346;28;20409;-74
2022/01/27 14:37:18;;;;;;;;;;;8.90;99.90;;;;;;5034461;28;20361;-73
2022/01/27 14:39:46;;;;;;;;;;;8.90;99.90;;;;;;5040349;28;20398;-73
2022/01/27 14:42:16;;;;;;;;;;;8.80;99.90;;;;;;5038009;28;20000;-71
2022/01/27 14:44:42;;;;;;;;;;;8.90;99.90;;;;;;5040625;28;20019;-71
2022/01/27 14:47:11;;;;;;;;;;;8.90;99.90;;;;;;5032811;28;19992;-71
2022/01/27 14:49:42;;;;;;;;;;;8.80;99.90;;;;;;5041212;28;20012;-72
2022/01/27 14:52:12;;;;;;;;;;;8.90;99.90;;;;;;5040727;28;19932;-70
2022/01/27 14:54:39;;;;;;;;;;;8.90;99.90;;;;;;5041788;28;19924;-71
2022/01/27 14:57:08;;;;;;;;;;;8.90;99.90;;;;;;5039299;28;19925;-70
2022/01/27 14:59:34;;;;;;;;;;;8.90;99.90;;;;;;5043077;28;19933;-71
2022/01/27 15:02:02;;;;;;;;;;;8.90;99.90;;;;;;5039565;28;19925;-71
2022/01/27 15:04:31;;;;;;;;;;;8.90;99.90;;;;;;5032183;28;19925;-71
2022/01/27 15:06:57;;;;;;;;;;;8.90;99.90;;;;;;5036673;28;19954;-71
2022/01/27 15:09:24;;;;;;;;;;;8.90;99.90;;;;;;5036599;28;19932;-70